Time;durP1;ratioP1;P1;durP2;ratioP2;P2;SDS_P1;SDS_P2;PMS_P1;PMS_P2;Temp;Humidity;BMP_temperature;BMP_pressure;BME280_temperature;BME280_humidity;BME280_pressure;Samples;Min_cycle;Max_cycle;Signal;HPM_P1;HPM_P2
2022/03/18 00:00:23;;;;;;;0.20;0.20;;;;;;;20.92;35.26;103393.03;5122736;28;20062;-31
2022/03/18 00:02:49;;;;;;;0.20;0.20;;;;;;;20.90;35.11;103397.13;5122064;28;20180;-31
2022/03/18 00:05:15;;;;;;;0.20;0.20;;;;;;;20.91;35.47;103388.59;5124102;28;20134;-32
2022/03/18 00:07:41;;;;;;;0.10;0.10;;;;;;;20.92;35.37;103386.66;5088730;28;20058;-32
2022/03/18 00:10:08;;;;;;;0.20;0.20;;;;;;;20.91;35.34;103390.50;5104449;28;20547;-32
2022/03/18 00:12:34;;;;;;;0.20;0.20;;;;;;;20.92;35.35;103395.81;5124563;28;20094;-31
2022/03/18 00:15:00;;;;;;;0.20;0.20;;;;;;;20.91;35.44;103399.66;5105626;28;20043;-31
2022/03/18 00:17:26;;;;;;;0.20;0.20;;;;;;;20.90;35.34;103395.22;5105708;28;20456;-32
2022/03/18 00:19:52;;;;;;;0.10;0.10;;;;;;;20.91;35.35;103399.66;5123427;28;20100;-31
2022/03/18 00:22:18;;;;;;;0.10;0.10;;;;;;;20.90;35.17;103400.75;5123626;28;20421;-32
2022/03/18 00:24:44;;;;;;;0.20;0.20;;;;;;;20.90;35.20;103399.91;5104389;28;20097;-32
2022/03/18 00:27:10;;;;;;;0.10;0.10;;;;;;;20.91;35.17;103409.91;5124004;28;20498;-31
2022/03/18 00:29:36;;;;;;;0.10;0.10;;;;;;;20.91;35.04;103407.97;5124175;28;20039;-31
2022/03/18 00:32:02;;;;;;;0.20;0.20;;;;;;;20.89;35.21;103407.34;5122988;28;20077;-31
2022/03/18 00:34:32;;;;;;;0.10;0.10;;;;;;;20.88;35.21;103405.66;5122791;28;20050;-32
2022/03/18 00:36:58;;;;;;;0.10;0.10;;;;;;;20.88;35.27;103411.19;5123135;28;20381;-33
2022/03/18 00:39:24;;;;;;;0.13;0.13;;;;;;;20.88;35.21;103411.19;5123009;28;20051;-31
2022/03/18 00:41:49;;;;;;;0.10;0.10;;;;;;;20.88;35.38;103405.66;5122339;28;20401;-31
2022/03/18 00:44:15;;;;;;;0.20;0.20;;;;;;;20.87;35.43;103408.69;5104545;28;20368;-31
2022/03/18 00:46:42;;;;;;;0.10;0.10;;;;;;;20.88;35.22;103408.44;5122927;28;20512;-31
2022/03/18 00:52:08;;;;;;;0.20;0.20;;;;;;;20.87;35.21;103417.81;5105198;28;20070;-31
2022/03/18 00:54:36;;;;;;;0.10;0.10;;;;;;;20.87;35.47;103415.06;5105638;28;20674;-32
2022/03/18 00:57:02;;;;;;;0.10;0.10;;;;;;;20.88;35.15;103422.28;5104125;28;20548;-32
2022/03/18 00:59:28;;;;;;;0.13;0.13;;;;;;;20.86;35.25;103424.44;5122402;28;20066;-32
2022/03/18 01:01:55;;;;;;;0.10;0.10;;;;;;;20.86;35.23;103430.00;5122181;28;20648;-31
2022/03/18 01:04:21;;;;;;;0.20;0.20;;;;;;;20.85;35.39;103431.03;5123172;28;20459;-33
2022/03/18 01:06:49;;;;;;;0.10;0.10;;;;;;;20.86;35.23;103427.22;5088343;28;20296;-33
2022/03/18 01:09:16;;;;;;;0.10;0.10;;;;;;;20.86;35.36;103429.16;5103303;28;20485;-32
2022/03/18 01:11:42;;;;;;;0.20;0.20;;;;;;;20.85;35.57;103438.50;5122684;28;20533;-31
2022/03/18 01:14:08;;;;;;;0.13;0.13;;;;;;;20.85;35.41;103439.34;5120117;27;20100;-32
2022/03/18 01:16:34;;;;;;;0.20;0.20;;;;;;;20.85;35.14;103447.66;5123074;28;20085;-34
2022/03/18 01:19:00;;;;;;;0.20;0.20;;;;;;;20.86;35.29;103445.78;5123333;28;20035;-31
2022/03/18 01:21:25;;;;;;;0.10;0.10;;;;;;;20.85;35.49;103452.34;5121290;28;20039;-33
2022/03/18 01:23:51;;;;;;;0.20;0.20;;;;;;;20.86;35.35;103443.84;5125244;27;20043;-33
2022/03/18 01:26:17;;;;;;;0.20;0.20;;;;;;;20.85;35.33;103438.50;5124534;28;20051;-32
2022/03/18 01:28:43;;;;;;;0.20;0.20;;;;;;;20.83;35.23;103447.06;5106963;28;20095;-31
2022/03/18 01:31:08;;;;;;;0.20;0.20;;;;;;;20.84;35.43;103443.22;5124614;28;20185;-31
2022/03/18 01:33:36;;;;;;;0.10;0.10;;;;;;;20.84;35.42;103436.81;5126909;28;20050;-31
2022/03/18 01:36:02;;;;;;;0.20;0.20;;;;;;;20.84;35.42;103445.13;5125230;28;20130;-34
2022/03/18 01:38:28;;;;;;;0.20;0.20;;;;;;;20.82;35.34;103439.84;5107480;28;20119;-31
2022/03/18 01:40:55;;;;;;;0.10;0.10;;;;;;;20.83;35.26;103444.28;5124402;28;20090;-31
2022/03/18 01:43:21;;;;;;;0.20;0.20;;;;;;;20.82;35.33;103441.75;5126249;28;20086;-32
2022/03/18 01:45:46;;;;;;;0.10;0.10;;;;;;;20.81;35.47;103449.19;5108401;28;20092;-31
2022/03/18 01:48:13;;;;;;;0.20;0.20;;;;;;;20.82;35.51;103444.53;5125965;28;20055;-31
2022/03/18 01:50:40;;;;;;;0.20;0.20;;;;;;;20.83;35.21;103447.06;5124534;28;20077;-32
2022/03/18 01:53:06;;;;;;;0.20;0.20;;;;;;;20.82;35.43;103444.53;5126352;28;20465;-32
2022/03/18 01:55:32;;;;;;;0.20;0.20;;;;;;;20.83;35.50;103443.44;5108512;28;20094;-31
2022/03/18 01:57:58;;;;;;;0.17;0.17;;;;;;;20.82;35.25;103456.47;5125007;28;20035;-31
2022/03/18 02:00:24;;;;;;;0.10;0.10;;;;;;;20.82;35.57;103450.91;5106235;28;20054;-32
2022/03/18 02:02:51;;;;;;;0.20;0.20;;;;;;;20.83;35.35;103460.06;5107523;28;20103;-31
2022/03/18 02:05:18;;;;;;;0.20;0.20;;;;;;;20.82;35.30;103463.91;5090617;28;20054;-31
2022/03/18 02:07:45;;;;;;;0.10;0.10;;;;;;;20.81;35.43;103460.28;5090919;28;20123;-32
2022/03/18 02:10:11;;;;;;;0.10;0.10;;;;;;;20.82;35.62;103463.91;5124113;28;20390;-32
2022/03/18 02:12:37;;;;;;;0.13;0.13;;;;;;;20.81;35.18;103463.03;5125774;28;20766;-32
2022/03/18 02:15:03;;;;;;;0.20;0.20;;;;;;;20.80;35.53;103475.22;5125100;28;20035;-33
2022/03/18 02:17:29;;;;;;;0.20;0.20;;;;;;;20.79;35.45;103485.44;5127081;28;20047;-31
2022/03/18 02:19:55;;;;;;;0.20;0.20;;;;;;;20.80;35.47;103483.53;5125730;28;20085;-32
2022/03/18 02:22:23;;;;;;;0.20;0.20;;;;;;;20.81;35.32;103487.97;5124634;28;20078;-32
2022/03/18 02:24:50;;;;;;;0.20;0.20;;;;;;;20.79;35.53;103487.38;5125358;28;20096;-32
2022/03/18 02:27:16;;;;;;;0.10;0.10;;;;;;;20.78;35.57;103497.59;5106766;28;20051;-32
2022/03/18 02:29:42;;;;;;;0.20;0.20;;;;;;;20.79;35.21;103498.44;5123703;28;20078;-31
2022/03/18 02:32:09;;;;;;;0.20;0.20;;;;;;;20.79;35.32;103498.44;5105492;28;20071;-30
2022/03/18 02:34:36;;;;;;;0.20;0.20;;;;;;;20.78;35.27;103505.91;5107241;28;20042;-33
2022/03/18 02:37:02;;;;;;;0.20;0.20;;;;;;;20.78;35.35;103503.16;5124305;28;20518;-31
2022/03/18 02:39:27;;;;;;;0.15;0.15;;;;;;;20.78;35.23;103503.16;5090293;28;20073;-31
2022/03/18 02:41:54;;;;;;;0.10;0.10;;;;;;;20.79;35.41;103509.53;5124736;28;20039;-32
2022/03/18 02:44:19;;;;;;;0.10;0.10;;;;;;;20.78;35.18;103505.91;5106321;28;20707;-31
2022/03/18 02:46:45;;;;;;;0.10;0.10;;;;;;;20.79;35.52;103501.22;5125070;28;20062;-30
2022/03/18 02:49:11;;;;;;;0.20;0.20;;;;;;;20.79;35.56;103509.53;5125318;28;20058;-30
2022/03/18 02:51:37;;;;;;;0.20;0.20;;;;;;;20.78;35.31;103508.69;5122306;28;20047;-31
2022/03/18 02:54:04;;;;;;;0.20;0.20;;;;;;;20.77;35.45;103512.53;5105092;28;20481;-30
2022/03/18 02:56:31;;;;;;;0.10;0.10;;;;;;;20.76;35.38;103510.81;5124730;28;20478;-31
2022/03/18 02:58:56;;;;;;;0.10;0.10;;;;;;;20.76;35.46;103510.81;5106598;28;20577;-31
2022/03/18 03:01:22;;;;;;;0.20;0.20;;;;;;;20.76;35.51;103518.28;5122863;28;20071;-32
2022/03/18 03:03:48;;;;;;;0.20;0.20;;;;;;;20.77;35.16;103520.84;5124040;27;20043;-31
2022/03/18 03:09:00;;;;;;;0.20;0.20;;;;;;;20.77;35.45;103517.22;5110262;28;20077;-31
2022/03/18 03:11:25;;;;;;;0.10;0.10;;;;;;;20.76;35.19;103521.91;5124733;28;20043;-31
2022/03/18 03:13:51;;;;;;;0.13;0.13;;;;;;;20.75;35.47;103531.28;5126373;28;20414;-31
2022/03/18 03:16:19;;;;;;;0.20;0.20;;;;;;;20.75;35.62;103522.13;5124397;28;20158;-32
2022/03/18 03:18:46;;;;;;;0.10;0.10;;;;;;;20.74;35.46;103526.84;5124250;28;20123;-32
2022/03/18 03:21:13;;;;;;;0.20;0.20;;;;;;;20.75;35.48;103527.69;5104489;28;20093;-32
2022/03/18 03:23:39;;;;;;;0.20;0.20;;;;;;;20.75;35.30;103536.81;5125496;28;20077;-31
2022/03/18 03:26:04;;;;;;;0.20;0.20;;;;;;;20.74;35.35;103535.13;5105778;28;20043;-32
2022/03/18 03:28:30;;;;;;;0.20;0.20;;;;;;;20.74;35.47;103535.13;5123907;28;20423;-33
2022/03/18 03:30:56;;;;;;;0.10;0.10;;;;;;;20.73;35.47;103539.00;5105145;28;20269;-32
2022/03/18 03:33:21;;;;;;;0.20;0.20;;;;;;;20.74;35.31;103546.22;5123756;28;20042;-32
2022/03/18 03:35:52;;;;;;;0.20;0.20;;;;;;;20.75;35.41;103541.53;5122890;28;20086;-31
2022/03/18 03:38:19;;;;;;;0.10;0.10;;;;;;;20.73;35.56;103543.69;5105343;28;20477;-32
2022/03/18 03:40:44;;;;;;;0.20;0.20;;;;;;;20.73;35.50;103547.31;5104607;28;20313;-31
2022/03/18 03:43:10;;;;;;;0.20;0.20;;;;;;;20.74;35.47;103545.38;5107054;28;20047;-31
2022/03/18 03:45:36;;;;;;;0.20;0.20;;;;;;;20.74;35.19;103545.38;5123921;27;20469;-32
2022/03/18 03:48:03;;;;;;;0.10;0.10;;;;;;;20.73;35.27;103541.75;5124304;28;21577;-33
2022/03/18 03:50:29;;;;;;;0.20;0.20;;;;;;;20.74;35.43;103545.38;5122926;28;20484;-30
2022/03/18 03:52:54;;;;;;;0.20;0.20;;;;;;;20.74;35.51;103559.22;5123519;28;20126;-31
2022/03/18 03:55:20;;;;;;;0.20;0.20;;;;;;;20.73;35.30;103557.53;5124789;28;20058;-32
2022/03/18 03:57:46;;;;;;;0.20;0.20;;;;;;;20.73;35.52;103563.06;5123513;28;20381;-30
2022/03/18 04:00:13;;;;;;;0.10;0.10;;;;;;;20.71;35.46;103557.75;5121395;28;20042;-31
2022/03/18 04:02:39;;;;;;;0.20;0.20;;;;;;;20.72;35.45;103556.66;5105403;28;20039;-33
2022/03/18 04:05:07;;;;;;;0.20;0.20;;;;;;;20.72;35.41;103558.59;5105214;28;20664;-31
2022/03/18 04:07:34;;;;;;;0.15;0.15;;;;;;;20.71;35.54;103566.06;5090068;28;20566;-31
2022/03/18 04:10:00;;;;;;;0.10;0.10;;;;;;;20.71;35.23;103563.28;5105223;28;20425;-31
2022/03/18 04:12:26;;;;;;;0.20;0.20;;;;;;;20.71;35.14;103563.28;5124423;28;20072;-32
2022/03/18 04:14:52;;;;;;;0.20;0.20;;;;;;;20.72;35.12;103566.91;5124379;28;20039;-33
2022/03/18 04:17:17;;;;;;;0.20;0.20;;;;;;;20.71;35.38;103563.28;5125268;28;20445;-32
2022/03/18 04:19:43;;;;;;;0.20;0.20;;;;;;;20.71;35.56;103566.06;5106029;28;20115;-31
2022/03/18 04:22:09;;;;;;;0.20;0.20;;;;;;;20.71;35.55;103571.59;5122214;28;20055;-32
2022/03/18 04:24:35;;;;;;;0.20;0.20;;;;;;;20.71;35.48;103574.34;5088783;28;20043;-31
2022/03/18 04:27:00;;;;;;;0.20;0.20;;;;;;;20.71;35.20;103567.97;5122903;28;20055;-32
2022/03/18 04:29:26;;;;;;;0.20;0.20;;;;;;;20.70;35.55;103566.28;5123887;28;20103;-31
2022/03/18 04:31:52;;;;;;;0.10;0.10;;;;;;;20.70;35.34;103572.66;5123095;28;20047;-31
2022/03/18 04:34:18;;;;;;;0.20;0.20;;;;;;;20.70;35.22;103580.97;5103989;28;20437;-31
2022/03/18 04:36:44;;;;;;;0.20;0.20;;;;;;;20.70;35.33;103582.91;5105021;28;20561;-31
2022/03/18 04:39:10;;;;;;;0.20;0.20;;;;;;;20.69;35.42;103587.59;5124413;28;20036;-32
2022/03/18 04:41:35;;;;;;;0.20;0.20;;;;;;;20.70;35.37;103591.22;5122883;28;20431;-31
2022/03/18 04:44:01;;;;;;;0.10;0.10;;;;;;;20.70;35.45;103591.22;5123465;28;20050;-31
2022/03/18 04:46:28;;;;;;;0.20;0.20;;;;;;;20.69;35.28;103589.53;5120993;28;20390;-33
2022/03/18 04:48:54;;;;;;;0.20;0.20;;;;;;;20.69;35.37;103579.28;5104615;28;20055;-32
2022/03/18 04:51:20;;;;;;;0.20;0.20;;;;;;;20.69;35.15;103584.00;5103083;28;20138;-30
2022/03/18 04:53:46;;;;;;;0.15;0.15;;;;;;;20.70;35.33;103591.22;5123203;28;20385;-31
2022/03/18 04:58:58;;;;;;;0.20;0.20;;;;;;;20.69;35.51;103593.13;5110414;28;20077;-30
2022/03/18 05:01:23;;;;;;;0.20;0.20;;;;;;;20.69;35.29;103606.97;5105701;28;20067;-31
2022/03/18 05:03:49;;;;;;;0.15;0.15;;;;;;;20.67;35.55;103609.13;5126533;27;20051;-31
2022/03/18 05:06:15;;;;;;;0.20;0.20;;;;;;;20.67;35.46;103609.13;5127572;28;20493;-31
2022/03/18 05:08:40;;;;;;;0.20;0.20;;;;;;;20.67;35.52;103614.66;5109102;28;20047;-31
2022/03/18 05:11:06;;;;;;;0.20;0.20;;;;;;;20.68;35.25;103623.81;5127225;28;20507;-31
2022/03/18 05:13:32;;;;;;;0.20;0.20;;;;;;;20.68;35.57;103624.69;5128271;28;20262;-31
2022/03/18 05:15:58;;;;;;;0.20;0.20;;;;;;;20.67;35.57;103622.97;5126748;28;20052;-31
2022/03/18 05:18:24;;;;;;;0.20;0.20;;;;;;;20.68;35.50;103637.66;5127601;28;20439;-33
2022/03/18 05:20:50;;;;;;;0.10;0.10;;;;;;;20.67;35.48;103639.56;5124874;28;20051;-31
2022/03/18 05:23:17;;;;;;;0.20;0.20;;;;;;;20.66;35.35;103637.88;5126198;28;20044;-32
2022/03/18 05:25:43;;;;;;;0.10;0.10;;;;;;;20.67;35.35;103641.50;5126831;28;20081;-31
2022/03/18 05:28:09;;;;;;;0.20;0.20;;;;;;;20.67;35.30;103647.88;5107901;28;20078;-32
2022/03/18 05:30:36;;;;;;;0.20;0.20;;;;;;;20.67;35.55;103653.41;5125209;28;20058;-32
2022/03/18 05:33:01;;;;;;;0.17;0.17;;;;;;;20.67;35.54;103663.66;5126644;28;20130;-30
2022/03/18 05:35:27;;;;;;;0.17;0.17;;;;;;;20.67;35.56;103663.66;5126497;28;20088;-34
2022/03/18 05:37:53;;;;;;;0.20;0.20;;;;;;;20.66;35.57;103673.88;5125916;28;21304;-31
2022/03/18 05:40:18;;;;;;;0.10;0.10;;;;;;;20.65;35.36;103674.97;5124867;28;20807;-34
2022/03/18 05:42:45;;;;;;;0.20;0.20;;;;;;;20.66;35.50;103675.81;5126422;28;20484;-30
2022/03/18 05:45:11;;;;;;;0.20;0.20;;;;;;;20.65;35.28;103682.44;5125896;28;20369;-31
2022/03/18 05:47:37;;;;;;;0.20;0.20;;;;;;;20.65;35.52;103682.44;5126258;28;20047;-32
2022/03/18 05:50:05;;;;;;;0.10;0.10;;;;;;;20.65;35.64;103688.81;5123276;28;20039;-30
2022/03/18 05:52:32;;;;;;;0.20;0.20;;;;;;;20.66;35.33;103692.44;5125687;28;20160;-31
2022/03/18 05:54:58;;;;;;;0.10;0.10;;;;;;;20.64;35.18;103691.78;5090310;28;20254;-31
2022/03/18 05:57:26;;;;;;;0.15;0.15;;;;;;;20.64;35.63;103700.97;5126456;28;20134;-32
2022/03/18 05:59:54;;;;;;;0.10;0.10;;;;;;;20.64;35.42;103709.28;5124398;28;20087;-31
2022/03/18 06:02:19;;;;;;;0.10;0.10;;;;;;;20.64;35.34;103705.63;5126566;27;20407;-31
2022/03/18 06:04:46;;;;;;;0.20;0.20;;;;;;;20.65;35.59;103710.13;5107090;28;20047;-31
2022/03/18 06:07:12;;;;;;;0.10;0.10;;;;;;;20.65;35.51;103699.03;5127637;28;20054;-32
2022/03/18 06:12:24;;;;;;;0.17;0.17;;;;;;;20.63;35.51;103713.09;5110192;28;20069;-31
2022/03/18 06:14:49;;;;;;;0.20;0.20;;;;;;;20.63;35.39;103712.25;5125628;28;20059;-31
2022/03/18 06:17:15;;;;;;;0.17;0.17;;;;;;;20.64;35.57;103719.47;5125569;28;20047;-31
2022/03/18 06:19:41;;;;;;;0.20;0.20;;;;;;;20.62;35.59;103725.25;5125302;28;20055;-30
2022/03/18 06:22:08;;;;;;;0.20;0.20;;;;;;;20.63;35.34;103734.41;5123483;28;20061;-31
2022/03/18 06:24:34;;;;;;;0.20;0.20;;;;;;;20.62;35.52;103741.84;5125631;27;20074;-30
2022/03/18 06:27:01;;;;;;;0.20;0.20;;;;;;;20.62;35.33;103733.56;5123525;28;20081;-31
2022/03/18 06:29:28;;;;;;;0.20;0.20;;;;;;;20.62;35.42;103732.72;5108782;28;20050;-34
2022/03/18 06:31:54;;;;;;;0.10;0.10;;;;;;;20.60;35.55;103732.94;5105351;28;20123;-31
2022/03/18 06:34:21;;;;;;;0.20;0.20;;;;;;;20.61;35.47;103725.47;5122264;28;21315;-32
2022/03/18 06:36:47;;;;;;;0.20;0.20;;;;;;;20.62;35.35;103727.16;5105532;28;20131;-32
2022/03/18 06:39:14;;;;;;;0.20;0.20;;;;;;;20.60;35.51;103730.16;5103102;28;20453;-32
2022/03/18 06:41:40;;;;;;;0.20;0.20;;;;;;;20.61;35.34;103736.56;5114532;28;20138;-33
2022/03/18 06:44:08;;;;;;;0.20;0.20;;;;;;;20.61;35.40;103744.88;5105107;28;20082;-33
2022/03/18 06:46:35;;;;;;;0.10;0.10;;;;;;;20.60;35.21;103743.16;5121284;28;20179;-33
2022/03/18 06:49:01;;;;;;;0.10;0.10;;;;;;;20.60;35.18;103751.47;5124328;28;20039;-31
2022/03/18 06:51:27;;;;;;;0.20;0.20;;;;;;;20.61;35.25;103753.16;5104157;28;20382;-31
2022/03/18 06:53:53;;;;;;;0.10;0.10;;;;;;;20.60;35.39;103762.56;5122189;28;20047;-31
2022/03/18 06:56:19;;;;;;;0.20;0.20;;;;;;;20.59;35.13;103760.84;5112182;27;20145;-32
2022/03/18 06:58:45;;;;;;;0.10;0.10;;;;;;;20.59;35.05;103764.44;5108333;27;20043;-31
2022/03/18 07:01:11;;;;;;;0.20;0.20;;;;;;;20.60;35.17;103768.09;5109507;27;20039;-32
2022/03/18 07:03:37;;;;;;;0.20;0.20;;;;;;;20.60;35.19;103762.56;5113300;27;20042;-31
2022/03/18 07:06:03;;;;;;;0.13;0.13;;;;;;;20.59;35.15;103764.44;5118780;27;20047;-32
2022/03/18 07:08:28;;;;;;;0.20;0.20;;;;;;;20.59;34.96;103761.69;5120173;27;20068;-37
2022/03/18 07:10:57;;;;;;;0.20;0.20;;;;;;;20.58;35.05;103776.59;5117704;27;21408;-33
2022/03/18 07:13:22;;;;;;;0.10;0.10;;;;;;;20.58;35.10;103771.06;5119117;27;20564;-36
2022/03/18 07:15:48;;;;;;;0.20;0.20;;;;;;;20.59;35.35;103761.69;5119597;27;20039;-33
2022/03/18 07:18:14;;;;;;;0.20;0.20;;;;;;;20.57;35.38;103761.06;5126991;27;20466;-33
2022/03/18 07:20:40;;;;;;;0.10;0.10;;;;;;;20.59;35.28;103758.06;5115596;27;20388;-33
2022/03/18 07:23:15;;;;;;;0.20;0.20;;;;;;;20.58;35.12;103768.28;5098396;28;20496;-32
2022/03/18 07:25:45;;;;;;;0.20;0.20;;;;;;;20.58;35.18;103759.97;5102098;28;20534;-31
2022/03/18 07:28:15;;;;;;;0.20;0.20;;;;;;;20.58;35.27;103764.69;5119883;27;20115;-34
2022/03/18 07:30:42;;;;;;;0.13;0.13;;;;;;;20.58;35.11;103756.38;5120495;27;20122;-33
2022/03/18 07:33:08;;;;;;;0.20;0.20;;;;;;;20.58;35.08;103754.44;5119890;27;20323;-31
2022/03/18 07:35:35;;;;;;;0.10;0.10;;;;;;;20.58;35.19;103759.13;5090702;27;20103;-32
2022/03/18 07:38:02;;;;;;;0.13;0.13;;;;;;;20.58;35.23;103759.97;5103717;27;20066;-32
2022/03/18 07:40:28;;;;;;;0.20;0.20;;;;;;;20.57;35.35;103769.38;5085802;28;20082;-32
2022/03/18 07:42:55;;;;;;;0.20;0.20;;;;;;;20.58;35.10;103768.28;5120071;27;20043;-31
2022/03/18 07:45:23;;;;;;;0.10;0.10;;;;;;;20.58;35.23;103761.91;5102048;27;20298;-30
2022/03/18 07:47:50;;;;;;;0.20;0.20;;;;;;;20.57;34.98;103769.38;5083104;27;20070;-33
2022/03/18 07:50:20;;;;;;;0.10;0.10;;;;;;;20.57;35.19;103763.84;5093545;27;20376;-32
2022/03/18 07:52:48;;;;;;;0.20;0.20;;;;;;;20.57;34.96;103774.06;5098402;27;20138;-31
2022/03/18 07:55:14;;;;;;;0.10;0.10;;;;;;;20.56;35.01;103767.69;5099928;27;20047;-35
2022/03/18 07:57:40;;;;;;;0.13;0.13;;;;;;;20.56;35.17;103770.44;5092970;28;20438;-31
2022/03/18 08:00:11;;;;;;;0.20;0.20;;;;;;;20.56;35.11;103759.38;5110563;27;20054;-30
2022/03/18 08:02:38;;;;;;;0.10;0.10;;;;;;;20.57;34.99;103761.06;5092872;28;20524;-32
2022/03/18 08:05:04;;;;;;;0.10;0.10;;;;;;;20.57;35.21;103761.06;5109828;27;20105;-32
2022/03/18 08:07:30;;;;;;;0.17;0.17;;;;;;;20.57;35.28;103754.69;5105986;27;20085;-30
2022/03/18 08:09:56;;;;;;;0.10;0.10;;;;;;;20.56;35.08;103755.75;5110577;27;20054;-30
2022/03/18 08:12:21;;;;;;;0.20;0.20;;;;;;;20.57;35.06;103763.00;5100912;27;20447;-35
2022/03/18 08:14:47;;;;;;;0.20;0.20;;;;;;;20.57;35.08;103768.53;5100264;27;20055;-31
2022/03/18 08:17:13;;;;;;;0.20;0.20;;;;;;;20.56;35.20;103775.13;5109884;27;20154;-31
2022/03/18 08:19:39;;;;;;;0.20;0.20;;;;;;;20.56;35.05;103770.44;5107656;27;20044;-32
2022/03/18 08:22:04;;;;;;;0.13;0.13;;;;;;;20.56;35.15;103775.97;5109791;27;20431;-31
2022/03/18 08:24:31;;;;;;;0.20;0.20;;;;;;;20.55;35.13;103785.34;5109920;27;20047;-32
2022/03/18 08:26:57;;;;;;;0.20;0.20;;;;;;;20.56;35.05;103783.44;5108914;27;20474;-31
2022/03/18 08:29:22;;;;;;;0.10;0.10;;;;;;;20.54;34.89;103786.41;5109001;27;20058;-32
2022/03/18 08:31:48;;;;;;;0.20;0.20;;;;;;;20.54;35.15;103787.25;5107545;27;20055;-31
2022/03/18 08:34:15;;;;;;;0.13;0.13;;;;;;;20.54;35.29;103791.94;5115509;27;20046;-31
2022/03/18 08:36:41;;;;;;;0.20;0.20;;;;;;;20.54;35.10;103791.94;5115776;27;20147;-31
2022/03/18 08:39:06;;;;;;;0.20;0.20;;;;;;;20.54;35.02;103798.34;5097545;27;20573;-32
2022/03/18 08:41:34;;;;;;;0.10;0.10;;;;;;;20.55;35.15;103799.19;5115852;27;20050;-33
2022/03/18 08:44:00;;;;;;;0.20;0.20;;;;;;;20.56;35.00;103802.81;5113486;27;20214;-33
2022/03/18 08:46:25;;;;;;;0.20;0.20;;;;;;;20.56;34.98;103813.91;5111565;27;20055;-31
2022/03/18 08:48:51;;;;;;;0.20;0.20;;;;;;;20.55;35.13;103813.03;5116240;27;21743;-34
2022/03/18 08:51:17;;;;;;;0.20;0.20;;;;;;;20.53;35.43;103812.41;5113611;27;20493;-32
2022/03/18 08:53:42;;;;;;;0.20;0.20;;;;;;;20.56;35.26;103819.44;5111146;27;20107;-32
2022/03/18 08:56:08;;;;;;;0.20;0.20;;;;;;;20.53;35.15;103824.31;5110170;27;20062;-37
2022/03/18 08:58:34;;;;;;;0.20;0.20;;;;;;;20.54;35.31;103827.94;5118927;27;20053;-32
2022/03/18 09:00:59;;;;;;;0.10;0.10;;;;;;;20.53;35.03;103831.78;5113486;27;20044;-33
2022/03/18 09:03:25;;;;;;;0.20;0.20;;;;;;;20.51;35.32;103837.56;5113464;27;20058;-32
2022/03/18 09:05:51;;;;;;;0.20;0.20;;;;;;;20.52;35.23;103833.72;5115002;27;20093;-33
2022/03/18 09:08:17;;;;;;;0.20;0.20;;;;;;;20.55;35.12;103832.41;5111072;27;20133;-35
2022/03/18 09:10:42;;;;;;;0.20;0.20;;;;;;;20.52;35.16;103843.94;5109281;27;20162;-31
2022/03/18 09:13:08;;;;;;;0.20;0.20;;;;;;;20.53;35.51;103840.94;5105876;27;20398;-34
2022/03/18 09:15:34;;;;;;;0.20;0.20;;;;;;;20.53;35.10;103832.63;5111171;27;20103;-30
2022/03/18 09:17:59;;;;;;;0.20;0.20;;;;;;;20.51;35.32;103834.78;5114205;27;20569;-30
2022/03/18 09:20:25;;;;;;;0.20;0.20;;;;;;;20.51;35.06;103840.31;5110493;28;20062;-32
2022/03/18 09:22:51;;;;;;;0.10;0.10;;;;;;;20.52;35.02;103843.94;5078454;28;20471;-31
2022/03/18 09:25:17;;;;;;;0.20;0.20;;;;;;;20.52;35.05;103858.63;5111429;27;20074;-32
2022/03/18 09:27:42;;;;;;;0.10;0.10;;;;;;;20.52;35.13;103860.56;5116083;27;20055;-34
2022/03/18 09:30:09;;;;;;;0.10;0.10;;;;;;;20.52;35.19;103869.69;5111473;28;20069;-33
2022/03/18 09:32:35;;;;;;;0.20;0.20;;;;;;;20.51;35.07;103862.47;5085884;28;20051;-35
2022/03/18 09:35:01;;;;;;;0.20;0.20;;;;;;;20.52;35.26;103866.94;5105756;28;20158;-36
2022/03/18 09:37:29;;;;;;;0.20;0.20;;;;;;;20.52;34.94;103861.41;5112339;28;20039;-32
2022/03/18 09:39:55;;;;;;;0.20;0.20;;;;;;;20.53;35.06;103865.00;5099291;27;20065;-36
2022/03/18 09:42:57;;;;;;;0.20;0.20;;;;;;;20.51;35.18;103864.41;5103858;28;20467;-32
2022/03/18 09:45:25;;;;;;;0.20;0.20;;;;;;;20.52;35.08;103866.94;5102599;28;20713;-32
2022/03/18 09:47:51;;;;;;;0.20;0.20;;;;;;;20.52;35.31;103874.41;5108800;27;20132;-34
2022/03/18 09:50:18;;;;;;;0.20;0.20;;;;;;;20.52;35.32;103878.00;5105859;27;20653;-35
2022/03/18 09:52:44;;;;;;;0.20;0.20;;;;;;;20.51;35.27;103876.31;5090652;28;20081;-31
2022/03/18 09:55:10;;;;;;;0.20;0.20;;;;;;;20.51;35.18;103889.31;5100173;27;20063;-32
2022/03/18 09:57:35;;;;;;;0.20;0.20;;;;;;;20.50;35.32;103880.13;5104202;27;20054;-33
2022/03/18 10:00:02;;;;;;;0.20;0.20;;;;;;;20.50;35.28;103882.06;5104648;27;20048;-33
2022/03/18 10:02:29;;;;;;;0.20;0.20;;;;;;;20.52;35.10;103878.00;5106290;28;20385;-33
2022/03/18 10:04:57;;;;;;;0.10;0.10;;;;;;;20.50;35.16;103876.50;5110750;27;20104;-37
2022/03/18 10:07:25;;;;;;;0.10;0.10;;;;;;;20.51;35.25;103881.00;5081439;28;20078;-32
2022/03/18 10:10:14;;;;;;;0.20;0.20;;;;;;;20.51;35.06;103890.16;5112091;27;20074;-32
2022/03/18 10:12:42;;;;;;;0.10;0.10;;;;;;;20.50;35.24;103880.13;5087370;28;20414;-37
2022/03/18 10:15:10;;;;;;;0.10;0.10;;;;;;;20.51;35.01;103881.00;5097107;27;21296;-32
2022/03/18 10:17:40;;;;;;;;;;;;;;;20.50;35.06;103885.66;5116779;27;20080;-32
2022/03/18 10:20:06;;;;;;;0.20;0.20;;;;;;;20.50;35.20;103880.13;5099643;27;20752;-32
2022/03/18 10:22:32;;;;;;;0.10;0.10;;;;;;;20.50;35.28;103882.06;5121358;27;20119;-33
2022/03/18 10:25:00;;;;;;;0.20;0.20;;;;;;;20.51;35.20;103875.47;5121505;27;20069;-32
2022/03/18 10:27:26;;;;;;;0.20;0.20;;;;;;;20.51;35.03;103875.47;5101501;28;20615;-31
2022/03/18 10:29:53;;;;;;;0.20;0.20;;;;;;;20.50;35.13;103873.75;5109117;28;20051;-33
2022/03/18 10:32:20;;;;;;;0.20;0.20;;;;;;;20.51;34.99;103878.25;5119137;28;20498;-32
2022/03/18 10:37:42;;;;;;;0.20;0.20;;;;;;;20.51;35.33;103868.00;5090163;27;20198;-32
2022/03/18 10:40:09;;;;;;;0.20;0.20;;;;;;;20.51;34.87;103869.94;5092989;28;20138;-34
2022/03/18 10:42:34;;;;;;;0.20;0.20;;;;;;;20.50;35.18;103871.81;5118659;28;20087;-32
2022/03/18 10:45:01;;;;;;;0.20;0.20;;;;;;;20.50;34.99;103873.75;5113617;27;20081;-32
2022/03/18 10:47:33;;;;;;;0.20;0.20;;;;;;;20.50;35.23;103871.81;5112690;27;20113;-33
2022/03/18 10:55:39;;;;;;;0.20;0.20;;;;;;;20.49;35.06;103881.22;5145452;27;20214;-32
2022/03/18 10:58:10;;;;;;;0.20;0.20;;;;;;;20.49;34.94;103878.44;5122861;27;20141;-31
2022/03/18 11:00:40;;;;;;;0.20;0.20;;;;;;;20.49;35.19;103883.13;5139938;27;20045;-31
2022/03/18 11:03:07;;;;;;;0.20;0.20;;;;;;;20.50;34.86;103882.91;5140061;27;20065;-31
2022/03/18 11:05:35;;;;;;;0.10;0.10;;;;;;;20.49;35.01;103878.44;5109384;27;20054;-31
2022/03/18 11:08:02;;;;;;;0.20;0.20;;;;;;;20.51;35.21;103881.00;5148288;27;20046;-31
2022/03/18 11:13:15;;;;;;;0.20;0.20;;;;;;;20.49;35.08;103878.44;5126039;27;20069;-31
2022/03/18 11:15:43;;;;;;;0.20;0.20;;;;;;;20.49;35.23;103889.50;5123984;27;20281;-33
2022/03/18 11:18:11;;;;;;;0.10;0.10;;;;;;;20.49;35.06;103883.97;5125050;27;20077;-35
2022/03/18 11:20:42;;;;;;;0.20;0.20;;;;;;;20.50;35.27;103884.81;5142377;27;20086;-35
2022/03/18 11:23:17;;;;;;;0.20;0.20;;;;;;;20.50;35.07;103879.28;5104450;27;20070;-31
2022/03/18 11:25:46;;;;;;;0.20;0.20;;;;;;;20.51;35.06;103875.47;5143373;27;20078;-33
2022/03/18 11:28:15;;;;;;;0.20;0.20;;;;;;;20.49;34.98;103872.91;5144109;27;20481;-30
2022/03/18 11:30:41;;;;;;;0.20;0.20;;;;;;;20.51;34.82;103881.00;5123262;27;20165;-31
2022/03/18 11:38:30;;;;;;;0.20;0.20;;;;;;;20.52;34.31;103871.63;5150606;27;20125;-32
2022/03/18 11:40:58;;;;;;;0.20;0.20;;;;;;;20.53;33.85;103874.16;5147333;27;20137;-39
2022/03/18 11:46:23;;;;;;;0.20;0.20;;;;;;;20.53;33.52;103879.69;5144234;27;20698;-35
2022/03/18 11:51:33;;;;;;;0.20;0.20;;;;;;;20.56;33.88;103874.81;5142083;27;20216;-39
2022/03/18 11:54:24;;;;;;;0.10;0.10;;;;;;;20.55;34.18;103879.47;5115702;27;20172;-31